createdAt,value
2018-08-16T00:01:13.481Z,100224.08
2018-08-16T00:04:11.369Z,100224.13
2018-08-16T00:07:10.334Z,100221.00
2018-08-16T00:10:08.605Z,100220.75
2018-08-16T00:13:07.700Z,100213.13
2018-08-16T00:16:05.909Z,100220.53
2018-08-16T00:19:04.332Z,100217.81
2018-08-16T00:22:02.357Z,100219.53
2018-08-16T00:25:01.663Z,100217.95
2018-08-16T00:27:59.565Z,100217.88
2018-08-16T00:30:57.592Z,100219.92
2018-08-16T00:33:55.825Z,100225.96
2018-08-16T00:36:54.106Z,100227.48
2018-08-16T00:39:52.268Z,100225.93
2018-08-16T00:42:50.448Z,100228.42
2018-08-16T00:45:48.406Z,100228.59
2018-08-16T00:48:46.313Z,100219.86
2018-08-16T00:51:44.621Z,100224.85
2018-08-16T00:54:44.841Z,100224.69
2018-08-16T00:57:43.849Z,100218.37
2018-08-16T01:00:42.087Z,100223.52
2018-08-16T01:03:41.353Z,100222.75
2018-08-16T01:06:39.525Z,100221.97
2018-08-16T01:09:37.593Z,100226.17
2018-08-16T01:12:36.563Z,100221.36
2018-08-16T01:15:35.593Z,100226.17
2018-08-16T01:18:33.716Z,100229.26
2018-08-16T01:21:31.858Z,100229.57
2018-08-16T01:24:31.748Z,100228.63
2018-08-16T01:27:29.830Z,100228.48
2018-08-16T01:30:29.222Z,100223.55
2018-08-16T01:33:27.397Z,100227.54
2018-08-16T01:36:25.552Z,100228.32
2018-08-16T01:39:23.846Z,100219.72
2018-08-16T01:42:22.290Z,100223.91
2018-08-16T01:45:20.517Z,100216.32
2018-08-16T01:48:19.566Z,100218.98
2018-08-16T01:51:17.930Z,100212.30
2018-08-16T01:54:16.478Z,100214.41
2018-08-16T01:57:14.424Z,100205.89
2018-08-16T02:00:12.573Z,100215.11
2018-08-16T02:03:10.643Z,100211.20
2018-08-16T02:06:08.809Z,100209.95
2018-08-16T02:09:06.947Z,100220.22
2018-08-16T02:12:05.079Z,100231.95
2018-08-16T02:15:03.184Z,100229.92
2018-08-16T02:18:01.248Z,100231.27
2018-08-16T02:20:59.365Z,100231.80
2018-08-16T02:23:58.317Z,100226.87
2018-08-16T02:26:56.517Z,100225.80
2018-08-16T02:29:54.577Z,100231.11
2018-08-16T02:32:52.986Z,100228.66
2018-08-16T02:35:50.846Z,100228.13
2018-08-16T02:38:48.969Z,100226.87
2018-08-16T02:41:48.379Z,100232.74
2018-08-16T02:44:46.236Z,100236.16
2018-08-16T02:47:44.226Z,100235.30
2018-08-16T02:50:42.687Z,100230.72
2018-08-16T02:53:41.757Z,100225.48
2018-08-16T02:56:40.965Z,100231.27
2018-08-16T02:59:39.321Z,100227.43
2018-08-16T03:02:37.555Z,100223.53
2018-08-16T03:05:35.697Z,100221.48
2018-08-16T03:08:34.002Z,100222.66
2018-08-16T03:11:32.242Z,100230.02
2018-08-16T03:14:30.111Z,100222.96
2018-08-16T03:17:28.301Z,100225.08
2018-08-16T03:20:26.320Z,100224.94
2018-08-16T03:23:24.887Z,100224.77
2018-08-16T03:26:22.956Z,100226.97
2018-08-16T03:29:20.936Z,100230.25
2018-08-16T03:32:19.175Z,100233.42
2018-08-16T03:35:17.494Z,100233.96
2018-08-16T03:38:16.220Z,100244.44
2018-08-16T03:41:13.985Z,100239.02
2018-08-16T03:44:11.958Z,100243.71
2018-08-16T03:47:10.215Z,100238.23
2018-08-16T03:50:08.380Z,100244.11
2018-08-16T03:53:09.396Z,100250.41
2018-08-16T03:56:07.261Z,100250.63
2018-08-16T03:59:05.276Z,100250.28
2018-08-16T04:02:03.456Z,100245.80
2018-08-16T04:05:02.556Z,100247.39
2018-08-16T04:08:00.870Z,100241.54
2018-08-16T04:10:58.988Z,100244.39
2018-08-16T04:13:56.941Z,100246.66
2018-08-16T04:16:56.104Z,100240.31
2018-08-16T04:19:54.202Z,100242.89
2018-08-16T04:22:52.445Z,100242.78
2018-08-16T04:25:50.689Z,100250.06
2018-08-16T04:28:48.676Z,100253.58
2018-08-16T04:31:47.139Z,100249.14
2018-08-16T04:34:46.237Z,100255.13
2018-08-16T04:37:44.369Z,100250.81
2018-08-16T04:40:42.952Z,100253.13
2018-08-16T04:43:40.729Z,100254.75
2018-08-16T04:46:39.024Z,100252.75
2018-08-16T04:49:38.060Z,100264.14
2018-08-16T04:52:37.058Z,100261.46
2018-08-16T04:55:36.222Z,100265.61
2018-08-16T04:58:34.345Z,100267.14
2018-08-16T05:01:32.753Z,100264.33
2018-08-16T05:04:30.865Z,100267.37
2018-08-16T05:07:29.086Z,100264.75
2018-08-16T05:10:28.269Z,100262.78
2018-08-16T05:13:26.484Z,100263.09
2018-08-16T05:16:25.013Z,100272.17
2018-08-16T05:19:23.398Z,100270.47
2018-08-16T05:22:22.864Z,100269.02
2018-08-16T05:25:21.954Z,100268.42
2018-08-16T05:28:20.124Z,100272.80
2018-08-16T05:31:18.262Z,100261.47
2018-08-16T05:34:16.530Z,100267.03
2018-08-16T05:37:14.368Z,100272.30
2018-08-16T05:40:12.466Z,100272.05
2018-08-16T05:43:10.833Z,100266.35
2018-08-16T05:46:08.861Z,100263.22
2018-08-16T05:49:06.831Z,100259.58
2018-08-16T05:52:05.152Z,100264.36
2018-08-16T05:55:03.459Z,100268.66
2018-08-16T05:58:01.831Z,100269.58
2018-08-16T06:01:00.392Z,100266.34
2018-08-16T06:03:58.471Z,100264.77
2018-08-16T06:06:57.470Z,100270.25
2018-08-16T06:09:55.801Z,100272.30
2018-08-16T06:12:54.169Z,100269.76
2018-08-16T06:15:52.900Z,100264.82
2018-08-16T06:18:51.093Z,100271.11
2018-08-16T06:21:49.938Z,100272.73
2018-08-16T06:24:47.944Z,100270.83
2018-08-16T06:27:46.106Z,100269.11
2018-08-16T06:30:44.269Z,100269.27
2018-08-16T06:33:45.310Z,100269.90
2018-08-16T06:36:43.410Z,100265.41
2018-08-16T06:39:41.317Z,100267.36
2018-08-16T06:42:39.384Z,100266.27
2018-08-16T06:45:37.450Z,100272.70
2018-08-16T06:48:35.499Z,100269.87
2018-08-16T06:51:34.719Z,100268.38
2018-08-16T06:54:32.840Z,100266.14
2018-08-16T06:57:30.915Z,100269.38
2018-08-16T07:00:28.759Z,100268.42
2018-08-16T07:03:28.053Z,100269.56
2018-08-16T07:06:26.004Z,100267.89
2018-08-16T07:09:24.283Z,100267.55
2018-08-16T07:12:22.555Z,100267.84
2018-08-16T07:15:23.662Z,100265.88
2018-08-16T07:18:22.247Z,100265.53
2018-08-16T07:21:20.420Z,100265.40
2018-08-16T07:24:18.855Z,100257.56
2018-08-16T07:27:17.144Z,100261.08
2018-08-16T07:30:15.288Z,100261.81
2018-08-16T07:33:14.274Z,100263.87
2018-08-16T07:36:12.372Z,100262.61
2018-08-16T07:39:11.417Z,100260.87
2018-08-16T07:42:09.575Z,100262.05
2018-08-16T07:45:07.495Z,100264.56
2018-08-16T07:48:05.709Z,100263.91
2018-08-16T07:51:04.112Z,100266.38
2018-08-16T07:54:02.246Z,100264.39
2018-08-16T07:57:00.456Z,100258.30
2018-08-16T07:59:58.248Z,100261.30
2018-08-16T08:02:56.785Z,100258.16
2018-08-16T08:05:54.795Z,100258.91
2018-08-16T08:08:54.148Z,100254.99
2018-08-16T08:11:52.440Z,100252.34
2018-08-16T08:14:51.302Z,100248.31
2018-08-16T08:17:49.527Z,100246.66
2018-08-16T08:20:47.245Z,100240.00
2018-08-16T08:23:45.376Z,100241.34
2018-08-16T08:26:43.597Z,100239.72
2018-08-16T08:29:42.639Z,100232.56
2018-08-16T08:32:40.729Z,100228.97
2018-08-16T08:35:38.772Z,100222.71
2018-08-16T08:38:38.240Z,100227.23
2018-08-16T08:41:36.442Z,100228.73
2018-08-16T08:44:36.961Z,100222.19
2018-08-16T08:47:42.951Z,100221.80
2018-08-16T08:50:41.997Z,100218.56
2018-08-16T08:54:59.375Z,100219.48
2018-08-16T08:59:12.225Z,100223.16
2018-08-16T09:02:10.410Z,100210.48
2018-08-16T09:05:08.608Z,100216.53
2018-08-16T09:08:07.621Z,100215.17
2018-08-16T09:11:29.624Z,100211.87
2018-08-16T09:14:39.971Z,100212.38
2018-08-16T09:17:38.517Z,100206.63
2018-08-16T09:20:36.584Z,100201.26
2018-08-16T09:23:35.359Z,100203.23
2018-08-16T09:26:40.086Z,100198.66
2018-08-16T09:30:54.521Z,100195.50
2018-08-16T09:34:05.718Z,100198.00
2018-08-16T09:37:04.062Z,100203.21
2018-08-16T09:40:01.966Z,100196.20
2018-08-16T09:43:00.235Z,100197.61
2018-08-16T09:47:19.122Z,100192.70
2018-08-16T09:50:17.251Z,100186.50
2018-08-16T09:53:15.327Z,100189.50
2018-08-16T09:56:13.373Z,100183.97
2018-08-16T09:59:12.364Z,100177.55
2018-08-16T10:02:10.594Z,100178.80
2018-08-16T10:05:08.596Z,100171.56
2018-08-16T10:08:06.579Z,100172.55
2018-08-16T10:11:05.060Z,100163.91
2018-08-16T10:14:06.044Z,100160.52
2018-08-16T10:17:05.267Z,100153.39
2018-08-16T10:20:03.405Z,100149.59
2018-08-16T10:23:03.089Z,100152.82
2018-08-16T10:26:01.362Z,100152.13
2018-08-16T10:28:59.933Z,100142.63
2018-08-16T10:31:58.349Z,100146.02
2018-08-16T10:34:56.570Z,100151.41
2018-08-16T10:37:54.644Z,100145.81
2018-08-16T10:40:53.191Z,100146.85
2018-08-16T10:43:59.658Z,100141.94
2018-08-16T10:46:57.923Z,100137.47
2018-08-16T10:49:55.766Z,100134.41
2018-08-16T10:52:53.960Z,100144.18
2018-08-16T10:55:53.929Z,100132.95
2018-08-16T10:58:52.014Z,100135.24
2018-08-16T11:01:51.210Z,100133.58
2018-08-16T11:04:52.194Z,100126.95
2018-08-16T11:07:50.480Z,100121.58
2018-08-16T11:10:48.416Z,100119.39
2018-08-16T11:13:46.621Z,100120.44
2018-08-16T11:16:44.713Z,100121.47
2018-08-16T11:19:42.809Z,100119.09
2018-08-16T11:22:41.240Z,100111.63
2018-08-16T11:25:40.066Z,100115.14
2018-08-16T11:28:37.772Z,100108.83
2018-08-16T11:31:35.865Z,100111.26
2018-08-16T11:34:33.832Z,100098.31
2018-08-16T11:37:31.682Z,100104.22
2018-08-16T11:40:29.887Z,100096.50
2018-08-16T11:43:28.112Z,100101.22
2018-08-16T11:46:26.409Z,100096.72
2018-08-16T11:49:24.645Z,100103.70
2018-08-16T11:52:22.794Z,100103.19
2018-08-16T11:55:20.848Z,100098.31
2018-08-16T11:58:19.020Z,100099.05
2018-08-16T12:01:17.093Z,100092.81
2018-08-16T12:04:14.944Z,100089.42
2018-08-16T12:07:13.299Z,100089.42
2018-08-16T12:10:11.324Z,100077.11
2018-08-16T12:13:09.523Z,100081.47
2018-08-16T12:16:07.716Z,100081.22
2018-08-16T12:19:05.757Z,100071.48
2018-08-16T12:22:04.045Z,100072.42
2018-08-16T12:25:01.874Z,100069.55
2018-08-16T12:27:59.855Z,100064.34
2018-08-16T12:30:59.026Z,100054.37
2018-08-16T12:33:57.377Z,100067.05
2018-08-16T12:36:55.542Z,100062.92
2018-08-16T12:39:53.632Z,100056.71
2018-08-16T12:42:52.558Z,100051.31
2018-08-16T12:45:51.791Z,100051.73
2018-08-16T12:48:49.958Z,100047.05
2018-08-16T12:51:48.097Z,100053.06
2018-08-16T12:54:46.157Z,100045.73
2018-08-16T12:57:45.554Z,100042.89
2018-08-16T13:00:43.963Z,100041.88
2018-08-16T13:03:42.245Z,100039.04
2018-08-16T13:06:40.258Z,100034.94
2018-08-16T13:09:39.614Z,100029.58
2018-08-16T13:12:37.869Z,100030.11
2018-08-16T13:15:36.981Z,100032.12
2018-08-16T13:18:35.255Z,100024.73
2018-08-16T13:21:33.426Z,100022.72
2018-08-16T13:24:32.454Z,100020.31
2018-08-16T13:27:31.652Z,100023.76
2018-08-16T13:30:29.604Z,100012.98
2018-08-16T13:33:27.668Z,100019.05
2018-08-16T13:36:25.557Z,100014.23
2018-08-16T13:39:24.735Z,100009.00
2018-08-16T13:42:23.965Z,100003.67
2018-08-16T13:45:29.975Z,100003.03
2018-08-16T13:48:28.236Z,99999.11
2018-08-16T13:51:27.449Z,99994.20
2018-08-16T13:54:25.969Z,99997.20
2018-08-16T13:57:24.230Z,99994.97
2018-08-16T14:00:23.224Z,99997.22
2018-08-16T14:03:22.318Z,99993.94
2018-08-16T14:06:32.865Z,99987.17
2018-08-16T14:09:01.688Z,99991.06
2018-08-16T14:11:30.310Z,99992.98
2018-08-16T14:13:59.014Z,99993.14
2018-08-16T14:16:27.623Z,99990.41
2018-08-16T14:18:56.354Z,99988.62
2018-08-16T14:21:25.048Z,99991.25
2018-08-16T14:23:53.724Z,99995.72
2018-08-16T14:26:22.436Z,99985.42
2018-08-16T14:28:51.107Z,99984.63
2018-08-16T14:31:19.828Z,99975.45
2018-08-16T14:33:48.388Z,99976.89
2018-08-16T14:36:16.977Z,99976.91
2018-08-16T14:38:45.650Z,99967.55
2018-08-16T14:41:14.482Z,99975.55
2018-08-16T14:43:43.142Z,99971.10
2018-08-16T14:46:11.950Z,99963.02
2018-08-16T14:48:41.069Z,99971.66
2018-08-16T14:51:09.841Z,99962.93
2018-08-16T14:53:38.653Z,99965.52
2018-08-16T14:56:07.734Z,99963.45
2018-08-16T14:58:36.413Z,99957.60
2018-08-16T15:01:10.660Z,99953.36
2018-08-16T15:03:39.448Z,99952.60
2018-08-16T15:06:08.468Z,99953.70
2018-08-16T15:08:38.204Z,99952.14
2018-08-16T15:11:07.939Z,99948.34
2018-08-16T15:13:36.602Z,99950.54
2018-08-16T15:16:05.375Z,99946.30
2018-08-16T15:18:34.043Z,99952.53
2018-08-16T15:21:02.741Z,99945.91
2018-08-16T15:23:32.596Z,99938.16
2018-08-16T15:26:01.589Z,99946.70
2018-08-16T15:28:31.227Z,99941.07
2018-08-16T15:31:00.177Z,99937.38
2018-08-16T15:33:28.733Z,99933.25
2018-08-16T15:35:57.403Z,99936.62
2018-08-16T15:38:26.026Z,99942.06
2018-08-16T15:40:54.668Z,99927.80
2018-08-16T15:43:23.514Z,99930.40
2018-08-16T15:45:52.273Z,99918.75
2018-08-16T15:48:20.991Z,99930.44
2018-08-16T15:50:49.876Z,99924.02
2018-08-16T15:53:18.555Z,99919.38
2018-08-16T15:55:47.442Z,99923.21
2018-08-16T15:58:16.156Z,99918.17
2018-08-16T16:00:44.817Z,99914.30
2018-08-16T16:03:13.737Z,99913.02
2018-08-16T16:05:42.507Z,99918.30
2018-08-16T16:08:11.252Z,99920.98
2018-08-16T16:10:40.022Z,99915.11
2018-08-16T16:13:08.831Z,99917.05
2018-08-16T16:15:37.482Z,99918.38
2018-08-16T16:18:06.448Z,99904.10
2018-08-16T16:20:35.637Z,99915.94
2018-08-16T16:23:04.361Z,99910.61
2018-08-16T16:25:33.982Z,99911.09
2018-08-16T16:28:03.125Z,99907.93
2018-08-16T16:30:32.728Z,99909.91
2018-08-16T16:33:01.365Z,99912.22
2018-08-16T16:35:30.031Z,99906.05
2018-08-16T16:37:59.542Z,99903.38
2018-08-16T16:40:29.416Z,99904.44
2018-08-16T16:42:58.093Z,99905.48
2018-08-16T16:45:26.854Z,99905.95
2018-08-16T16:47:55.692Z,99910.24
2018-08-16T16:50:24.424Z,99908.85
2018-08-16T16:52:53.167Z,99909.27
2018-08-16T16:55:21.773Z,99914.34
2018-08-16T16:57:50.664Z,99913.59
2018-08-16T17:00:19.330Z,99916.80
2018-08-16T17:02:48.012Z,99912.13
2018-08-16T17:05:16.695Z,99913.52
2018-08-16T17:07:45.404Z,99911.33
2018-08-16T17:10:14.656Z,99914.89
2018-08-16T17:12:44.161Z,99910.75
2018-08-16T17:15:12.929Z,99907.99
2018-08-16T17:17:42.002Z,99909.00
2018-08-16T17:20:11.640Z,99915.22
2018-08-16T17:22:40.708Z,99912.66
2018-08-16T17:25:09.399Z,99909.00
2018-08-16T17:27:38.012Z,99916.89
2018-08-16T17:30:07.309Z,99913.54
2018-08-16T17:32:35.885Z,99916.48
2018-08-16T17:35:05.299Z,99913.47
2018-08-16T17:37:34.052Z,99911.61
2018-08-16T17:40:03.004Z,99917.37
2018-08-16T17:42:31.835Z,99913.52
2018-08-16T17:45:00.465Z,99911.63
2018-08-16T17:47:29.789Z,99915.66
2018-08-16T17:49:58.604Z,99922.89
2018-08-16T17:52:27.401Z,99921.95
2018-08-16T17:54:56.465Z,99926.61
2018-08-16T17:57:25.097Z,99925.58
2018-08-16T17:59:53.871Z,99927.86
2018-08-16T18:02:22.552Z,99923.94
2018-08-16T18:04:51.148Z,99924.50
2018-08-16T18:07:19.929Z,99927.19
2018-08-16T18:09:48.598Z,99938.33
2018-08-16T18:12:17.413Z,99933.59
2018-08-16T18:14:46.061Z,99930.95
2018-08-16T18:17:15.377Z,99934.78
2018-08-16T18:19:43.986Z,99938.84
2018-08-16T18:22:12.581Z,99936.68
2018-08-16T18:24:41.220Z,99943.69
2018-08-16T18:27:09.845Z,99940.48
2018-08-16T18:29:38.475Z,99940.63
2018-08-16T18:32:07.307Z,99934.71
2018-08-16T18:34:37.295Z,99943.66
2018-08-16T18:37:05.971Z,99946.61
2018-08-16T18:39:36.328Z,99951.06
2018-08-16T18:42:04.994Z,99948.53
2018-08-16T18:44:33.674Z,99953.35
2018-08-16T18:47:02.348Z,99952.88
2018-08-16T18:49:30.932Z,99955.83
2018-08-16T18:52:00.785Z,99951.30
2018-08-16T18:54:29.558Z,99961.14
2018-08-16T18:56:58.156Z,99958.88
2018-08-16T18:59:27.115Z,99954.16
2018-08-16T19:01:55.784Z,99957.46
2018-08-16T19:04:24.412Z,99955.87
2018-08-16T19:06:53.378Z,99959.00
2018-08-16T19:09:22.147Z,99957.77
2018-08-16T19:11:50.973Z,99962.33
2018-08-16T19:14:19.751Z,99956.88
2018-08-16T19:16:48.358Z,99963.83
2018-08-16T19:19:17.015Z,99967.24
2018-08-16T19:21:45.742Z,99961.84
2018-08-16T19:24:14.395Z,99963.37
2018-08-16T19:26:43.009Z,99967.31
2018-08-16T19:29:11.745Z,99962.97
2018-08-16T19:31:40.588Z,99968.08
2018-08-16T19:34:09.393Z,99970.20
2018-08-16T19:36:38.081Z,99961.19
2018-08-16T19:39:09.917Z,99963.27
2018-08-16T19:41:38.614Z,99957.78
2018-08-16T19:44:07.436Z,99961.48
2018-08-16T19:46:36.322Z,99964.89
2018-08-16T19:49:05.601Z,99960.14
2018-08-16T19:51:34.243Z,99960.42
2018-08-16T19:54:02.939Z,99959.94
2018-08-16T19:56:31.765Z,99965.22
2018-08-16T19:59:00.484Z,99957.41
2018-08-16T20:01:29.437Z,99962.90
2018-08-16T20:03:59.223Z,99965.45
2018-08-16T20:06:27.823Z,99960.00
2018-08-16T20:08:56.690Z,99962.31
2018-08-16T20:11:25.293Z,99965.60
2018-08-16T20:13:54.621Z,99964.51
2018-08-16T20:16:23.932Z,99969.11
2018-08-16T20:18:52.702Z,99964.02
2018-08-16T20:21:21.593Z,99965.31
2018-08-16T20:23:50.230Z,99960.09
2018-08-16T20:26:18.915Z,99963.37
2018-08-16T20:28:47.856Z,99955.06
2018-08-16T20:31:16.661Z,99966.62
2018-08-16T20:33:45.413Z,99966.11
2018-08-16T20:36:14.293Z,99969.99
2018-08-16T20:38:43.505Z,99970.96
2018-08-16T20:41:12.510Z,99965.24
2018-08-16T20:43:41.201Z,99965.45
2018-08-16T20:46:09.838Z,99968.23
2018-08-16T20:48:38.580Z,99970.58
2018-08-16T20:51:07.495Z,99966.56
2018-08-16T20:53:36.142Z,99969.80
2018-08-16T20:56:05.457Z,99977.31
2018-08-16T20:58:34.077Z,99975.31
2018-08-16T21:01:02.771Z,99983.23
2018-08-16T21:03:32.134Z,99982.23
2018-08-16T21:06:00.793Z,99976.47
2018-08-16T21:08:29.421Z,99977.02
2018-08-16T21:10:58.123Z,99975.97
2018-08-16T21:13:26.865Z,99980.63
2018-08-16T21:15:55.504Z,99975.11
2018-08-16T21:18:24.222Z,99978.31
2018-08-16T21:20:52.972Z,99980.42
2018-08-16T21:23:21.719Z,99975.75
2018-08-16T21:25:50.576Z,99978.95
2018-08-16T21:28:19.333Z,99986.79
2018-08-16T21:30:47.985Z,99974.33
2018-08-16T21:33:16.676Z,99982.94
2018-08-16T21:35:45.320Z,99975.48
2018-08-16T21:38:15.136Z,99977.98
2018-08-16T21:40:44.080Z,99980.25
2018-08-16T21:43:12.733Z,99983.02
2018-08-16T21:45:42.130Z,99979.80
2018-08-16T21:48:10.913Z,99981.93
2018-08-16T21:50:39.783Z,99984.43
2018-08-16T21:53:09.440Z,99987.34
2018-08-16T21:55:38.115Z,99979.05
2018-08-16T21:58:06.731Z,99981.83
2018-08-16T22:00:56.639Z,99980.87
2018-08-16T22:03:27.658Z,99978.58
2018-08-16T22:06:03.531Z,99979.70
2018-08-16T22:08:45.902Z,99975.73
2018-08-16T22:11:14.603Z,99975.73
2018-08-16T22:13:43.274Z,99972.79
2018-08-16T22:16:12.248Z,99961.53
2018-08-16T22:18:41.230Z,99973.06
2018-08-16T22:21:10.943Z,99972.41
2018-08-16T22:23:39.716Z,99971.94
2018-08-16T22:26:08.502Z,99961.87
2018-08-16T22:28:37.140Z,99967.04
2018-08-16T22:31:05.923Z,99962.22
2018-08-16T22:33:34.732Z,99960.36
2018-08-16T22:36:03.432Z,99966.28
2018-08-16T22:38:32.206Z,99965.33
2018-08-16T22:41:00.822Z,99962.86
2018-08-16T22:43:30.137Z,99958.69
2018-08-16T22:45:58.777Z,99959.44
2018-08-16T22:48:27.385Z,99960.02
2018-08-16T22:50:56.126Z,99956.77
2018-08-16T22:53:24.892Z,99952.22
2018-08-16T22:55:53.683Z,99949.92
2018-08-16T22:58:22.361Z,99945.55
2018-08-16T23:00:50.908Z,99946.67
2018-08-16T23:03:19.589Z,99948.77
2018-08-16T23:05:48.416Z,99953.08
2018-08-16T23:08:17.096Z,99949.83
2018-08-16T23:10:45.822Z,99936.75
2018-08-16T23:13:14.614Z,99942.36
2018-08-16T23:15:43.756Z,99937.30
2018-08-16T23:18:12.492Z,99944.45
2018-08-16T23:20:41.080Z,99937.03
2018-08-16T23:23:09.667Z,99946.95
2018-08-16T23:25:38.264Z,99940.34
2018-08-16T23:28:06.873Z,99938.84
2018-08-16T23:30:36.624Z,99937.33
2018-08-16T23:33:05.424Z,99933.60
2018-08-16T23:35:35.076Z,99932.81
2018-08-16T23:38:03.905Z,99931.14
2018-08-16T23:40:32.697Z,99931.89
2018-08-16T23:43:01.389Z,99929.22
2018-08-16T23:45:30.075Z,99926.93
2018-08-16T23:48:09.752Z,99923.13
2018-08-16T23:50:38.470Z,99936.10
2018-08-16T23:53:07.303Z,99934.66
2018-08-16T23:55:36.936Z,99926.38
2018-08-16T23:58:05.766Z,99926.25
